createdAt,value
2017-08-20T00:00:41.248Z,66.50
2017-08-20T00:03:10.533Z,66.30
2017-08-20T00:05:39.724Z,65.90
2017-08-20T00:08:09.166Z,65.90
2017-08-20T00:10:39.552Z,65.70
2017-08-20T00:13:10.388Z,65.60
2017-08-20T00:15:44.197Z,65.80
2017-08-20T00:18:17.018Z,65.50
2017-08-20T00:20:46.164Z,65.60
2017-08-20T00:23:15.240Z,65.60
2017-08-20T00:25:44.208Z,65.40
2017-08-20T00:28:13.457Z,65.30
2017-08-20T00:30:47.302Z,65.50
2017-08-20T00:33:16.500Z,65.40
2017-08-20T00:35:45.696Z,65.30
2017-08-20T00:38:14.661Z,65.30
2017-08-20T00:40:43.620Z,65.40
2017-08-20T00:43:12.737Z,65.60
2017-08-20T00:45:41.695Z,65.80
2017-08-20T00:48:10.649Z,66.30
2017-08-20T00:50:39.607Z,67.00
2017-08-20T00:53:12.952Z,67.70
2017-08-20T00:55:41.936Z,67.90
2017-08-20T00:58:34.068Z,68.10
2017-08-20T01:01:03.067Z,67.80
2017-08-20T01:03:32.064Z,67.90
2017-08-20T01:06:01.019Z,68.50
2017-08-20T01:08:29.990Z,68.30
2017-08-20T01:10:59.297Z,68.20
2017-08-20T01:13:28.568Z,68.10
2017-08-20T01:15:57.900Z,68.30
2017-08-20T01:18:26.873Z,68.00
2017-08-20T01:20:55.826Z,68.20
2017-08-20T01:23:24.791Z,68.40
2017-08-20T01:25:53.765Z,68.60
2017-08-20T01:28:22.728Z,68.40
2017-08-20T01:30:55.092Z,68.00
2017-08-20T01:33:24.055Z,67.70
2017-08-20T01:35:53.196Z,67.40
2017-08-20T01:38:22.157Z,67.50
2017-08-20T01:40:51.119Z,67.80
2017-08-20T01:43:20.083Z,66.80
2017-08-20T01:45:49.102Z,66.70
2017-08-20T01:48:18.037Z,66.20
2017-08-20T01:50:54.794Z,66.30
2017-08-20T01:53:23.856Z,66.30
2017-08-20T01:55:52.916Z,66.20
2017-08-20T01:58:21.913Z,66.20
2017-08-20T02:00:50.875Z,66.10
2017-08-20T02:03:19.831Z,65.70
2017-08-20T02:05:48.787Z,65.60
2017-08-20T02:08:17.748Z,65.70
2017-08-20T02:10:46.813Z,65.50
2017-08-20T02:13:15.767Z,65.60
2017-08-20T02:15:44.719Z,65.90
2017-08-20T02:18:13.679Z,65.40
2017-08-20T02:20:42.637Z,66.00
2017-08-20T02:23:11.658Z,66.20
2017-08-20T02:25:40.695Z,66.30
2017-08-20T02:28:09.678Z,66.30
2017-08-20T02:30:38.639Z,66.30
2017-08-20T02:33:07.590Z,66.50
2017-08-20T02:35:36.561Z,66.50
2017-08-20T02:38:05.510Z,66.60
2017-08-20T02:40:34.475Z,66.50
2017-08-20T02:43:03.608Z,66.10
2017-08-20T02:45:32.591Z,65.90
2017-08-20T02:48:01.554Z,65.90
2017-08-20T02:50:30.521Z,65.70
2017-08-20T02:52:59.730Z,65.60
2017-08-20T02:55:28.799Z,65.60
2017-08-20T02:57:57.769Z,65.80
2017-08-20T03:00:26.804Z,65.80
2017-08-20T03:02:55.747Z,65.60
2017-08-20T03:05:24.711Z,65.30
2017-08-20T03:07:54.619Z,65.40
2017-08-20T03:10:23.732Z,65.30
2017-08-20T03:12:52.677Z,65.40
2017-08-20T03:15:21.700Z,65.40
2017-08-20T03:17:50.713Z,65.30
2017-08-20T03:20:19.703Z,65.40
2017-08-20T03:22:48.655Z,65.80
2017-08-20T03:25:17.608Z,65.80
2017-08-20T03:27:46.578Z,65.60
2017-08-20T03:30:15.539Z,66.00
2017-08-20T03:32:45.452Z,66.20
2017-08-20T03:35:14.422Z,65.90
2017-08-20T03:37:43.378Z,65.80
2017-08-20T03:40:12.359Z,65.90
2017-08-20T03:42:41.443Z,65.90
2017-08-20T03:45:10.404Z,65.80
2017-08-20T03:47:39.354Z,65.80
2017-08-20T03:50:08.324Z,65.70
2017-08-20T03:52:50.420Z,65.70
2017-08-20T03:55:19.361Z,65.70
2017-08-20T03:57:48.327Z,65.80
2017-08-20T04:00:17.283Z,65.90
2017-08-20T04:02:46.267Z,65.80
2017-08-20T04:05:15.223Z,65.60
2017-08-20T04:07:44.185Z,66.00
2017-08-20T04:10:13.140Z,66.00
2017-08-20T04:12:42.095Z,66.00
2017-08-20T04:15:12.046Z,66.00
2017-08-20T04:17:41.004Z,66.20
2017-08-20T04:20:10.971Z,66.10
2017-08-20T04:22:39.926Z,66.70
2017-08-20T04:25:08.890Z,66.00
2017-08-20T04:27:37.843Z,65.60
2017-08-20T04:30:24.663Z,65.30
2017-08-20T04:32:53.625Z,65.30
2017-08-20T04:35:22.575Z,65.40
2017-08-20T04:37:51.551Z,66.00
2017-08-20T04:40:20.539Z,66.30
2017-08-20T04:42:51.459Z,67.30
2017-08-20T04:45:20.414Z,67.20
2017-08-20T04:47:49.371Z,65.30
2017-08-20T04:50:38.783Z,65.20
2017-08-20T04:53:07.740Z,65.00
2017-08-20T04:55:36.705Z,65.50
2017-08-20T04:58:29.211Z,66.20
2017-08-20T05:00:58.194Z,65.50
2017-08-20T05:03:27.198Z,65.50
2017-08-20T05:05:56.154Z,65.50
2017-08-20T05:08:25.117Z,65.30
2017-08-20T05:10:54.076Z,65.10
2017-08-20T05:13:23.051Z,65.20
2017-08-20T05:15:52.016Z,65.60
2017-08-20T05:18:20.966Z,65.60
2017-08-20T05:20:49.927Z,65.20
2017-08-20T05:23:18.875Z,65.00
2017-08-20T05:25:47.843Z,64.70
2017-08-20T05:28:16.798Z,64.60
2017-08-20T05:30:45.755Z,64.30
2017-08-20T05:33:14.718Z,64.20
2017-08-20T05:35:43.683Z,65.10
2017-08-20T05:38:12.664Z,64.40
2017-08-20T05:40:41.618Z,64.40
2017-08-20T05:43:11.264Z,64.20
2017-08-20T05:45:40.223Z,63.80
2017-08-20T05:48:09.188Z,63.20
2017-08-20T05:50:38.165Z,64.20
2017-08-20T05:53:07.115Z,64.40
2017-08-20T05:55:36.068Z,64.80
2017-08-20T05:58:05.038Z,64.90
2017-08-20T06:00:33.983Z,64.50
2017-08-20T06:03:02.975Z,65.30
2017-08-20T06:05:31.932Z,64.50
2017-08-20T06:08:02.868Z,64.90
2017-08-20T06:10:31.835Z,64.30
2017-08-20T06:13:00.785Z,63.80
2017-08-20T06:15:29.763Z,63.30
2017-08-20T06:17:58.719Z,62.40
2017-08-20T06:20:27.680Z,62.60
2017-08-20T06:22:56.669Z,62.60
2017-08-20T06:25:25.623Z,63.50
2017-08-20T06:27:54.599Z,63.60
2017-08-20T06:30:23.547Z,63.00
2017-08-20T06:32:52.506Z,62.60
2017-08-20T06:35:21.467Z,60.60
2017-08-20T06:37:50.420Z,60.80
2017-08-20T06:40:19.385Z,60.00
2017-08-20T06:42:48.347Z,59.00
2017-08-20T06:45:17.307Z,58.60
2017-08-20T06:47:46.275Z,58.60
2017-08-20T06:50:15.228Z,58.00
2017-08-20T06:52:44.204Z,57.10
2017-08-20T06:55:13.159Z,56.10
2017-08-20T06:57:42.115Z,54.20
2017-08-20T07:00:11.067Z,54.90
2017-08-20T07:02:40.014Z,55.40
2017-08-20T07:05:08.979Z,55.20
2017-08-20T07:07:37.924Z,55.20
2017-08-20T07:10:06.876Z,54.20
2017-08-20T07:12:35.890Z,53.90
2017-08-20T07:15:04.840Z,54.40
2017-08-20T07:17:33.832Z,54.30
2017-08-20T07:20:02.783Z,52.80
2017-08-20T07:22:31.743Z,52.70
2017-08-20T07:25:00.703Z,52.30
2017-08-20T07:27:29.650Z,51.10
2017-08-20T07:29:58.632Z,51.80
2017-08-20T07:32:27.581Z,52.00
2017-08-20T07:34:56.559Z,51.50
2017-08-20T07:37:25.514Z,51.50
2017-08-20T07:39:54.463Z,51.70
2017-08-20T07:42:23.434Z,50.20
2017-08-20T07:44:52.384Z,51.80
2017-08-20T07:47:21.335Z,50.60
2017-08-20T07:49:50.302Z,49.10
2017-08-20T07:52:19.252Z,47.70
2017-08-20T07:54:48.720Z,48.50
2017-08-20T07:57:17.666Z,47.30
2017-08-20T07:59:46.623Z,47.60
2017-08-20T08:02:15.575Z,47.40
2017-08-20T08:04:44.530Z,46.40
2017-08-20T08:07:13.488Z,45.20
2017-08-20T08:09:42.428Z,44.00
2017-08-20T08:12:18.653Z,43.30
2017-08-20T08:14:47.615Z,43.90
2017-08-20T08:17:16.567Z,44.10
2017-08-20T08:19:45.523Z,44.30
2017-08-20T08:22:14.477Z,44.30
2017-08-20T08:24:43.447Z,42.40
2017-08-20T08:27:12.392Z,41.90
2017-08-20T08:29:42.324Z,40.80
2017-08-20T08:32:11.283Z,40.30
2017-08-20T08:34:40.266Z,42.90
2017-08-20T08:37:09.223Z,43.00
2017-08-20T08:39:38.163Z,42.30
2017-08-20T08:42:07.128Z,39.90
2017-08-20T08:44:36.083Z,41.30
2017-08-20T08:47:05.026Z,41.90
2017-08-20T08:49:34.913Z,41.00
2017-08-20T08:52:03.884Z,40.30
2017-08-20T08:54:32.866Z,40.80
2017-08-20T08:57:01.832Z,39.30
2017-08-20T08:59:30.779Z,39.40
2017-08-20T09:01:59.727Z,38.90
2017-08-20T09:04:28.675Z,40.00
2017-08-20T09:06:57.655Z,37.20
2017-08-20T09:09:26.606Z,37.70
2017-08-20T09:11:55.587Z,38.40
2017-08-20T09:14:24.543Z,37.30
2017-08-20T09:16:53.487Z,37.70
2017-08-20T09:19:22.467Z,35.70
2017-08-20T09:21:51.480Z,36.00
2017-08-20T09:24:20.431Z,34.30
2017-08-20T09:26:49.388Z,34.70
2017-08-20T09:29:18.335Z,34.70
2017-08-20T09:31:47.299Z,33.10
2017-08-20T09:34:16.255Z,36.00
2017-08-20T09:36:45.211Z,31.30
2017-08-20T09:39:14.158Z,31.70
2017-08-20T09:41:43.135Z,31.80
2017-08-20T09:44:12.094Z,30.90
2017-08-20T09:46:41.422Z,31.10
2017-08-20T09:49:10.379Z,31.70
2017-08-20T09:51:39.320Z,31.70
2017-08-20T09:54:08.307Z,31.30
2017-08-20T09:56:37.336Z,30.30
2017-08-20T09:59:08.459Z,30.40
2017-08-20T10:01:37.690Z,29.70
2017-08-20T10:04:06.797Z,31.80
2017-08-20T10:06:36.214Z,28.60
2017-08-20T10:09:05.671Z,29.70
2017-08-20T10:11:34.767Z,29.40
2017-08-20T10:14:03.945Z,29.30
2017-08-20T10:16:32.897Z,29.90
2017-08-20T10:19:01.856Z,28.10
2017-08-20T10:21:30.989Z,28.40
2017-08-20T10:24:00.026Z,29.30
2017-08-20T10:26:28.973Z,28.10
2017-08-20T10:28:58.023Z,29.30
2017-08-20T10:31:27.114Z,28.90
2017-08-20T10:33:56.079Z,28.80
2017-08-20T10:36:25.055Z,29.30
2017-08-20T10:38:54.101Z,32.30
2017-08-20T10:41:23.047Z,30.20
2017-08-20T10:43:52.020Z,28.40
2017-08-20T10:46:20.972Z,28.90
2017-08-20T10:48:50.183Z,27.20
2017-08-20T10:51:19.139Z,26.70
2017-08-20T10:53:50.172Z,26.60
2017-08-20T10:56:19.526Z,24.90
2017-08-20T10:58:48.472Z,26.90
2017-08-20T11:01:17.434Z,28.40
2017-08-20T11:03:46.399Z,30.10
2017-08-20T11:06:15.387Z,29.80
2017-08-20T11:08:44.332Z,29.10
2017-08-20T11:11:13.285Z,30.10
2017-08-20T11:13:42.238Z,29.90
2017-08-20T11:16:11.199Z,30.30
2017-08-20T11:18:41.967Z,32.30
2017-08-20T11:21:11.108Z,31.50
2017-08-20T11:23:40.078Z,30.00
2017-08-20T11:26:09.032Z,29.90
2017-08-20T11:28:38.003Z,29.70
2017-08-20T11:31:06.950Z,30.60
2017-08-20T11:33:35.895Z,32.50
2017-08-20T11:36:04.847Z,31.70
2017-08-20T11:38:33.804Z,31.30
2017-08-20T11:41:02.783Z,29.50
2017-08-20T11:43:31.733Z,28.00
2017-08-20T11:46:00.690Z,26.70
2017-08-20T11:48:29.647Z,25.60
2017-08-20T11:50:58.595Z,24.40
2017-08-20T11:53:27.544Z,24.80
2017-08-20T11:55:56.491Z,25.60
2017-08-20T11:58:25.447Z,26.40
2017-08-20T12:00:54.403Z,28.50
2017-08-20T12:03:23.352Z,28.70
2017-08-20T12:05:52.303Z,29.40
2017-08-20T12:08:21.252Z,29.30
2017-08-20T12:10:50.234Z,26.90
2017-08-20T12:13:19.179Z,25.70
2017-08-20T12:15:48.127Z,25.20
2017-08-20T12:18:17.076Z,24.30
2017-08-20T12:20:46.031Z,24.00
2017-08-20T12:23:14.991Z,25.40
2017-08-20T12:25:43.932Z,27.20
2017-08-20T12:28:12.875Z,28.60
2017-08-20T12:30:41.826Z,30.20
2017-08-20T12:33:10.770Z,29.90
2017-08-20T12:35:39.746Z,29.60
2017-08-20T12:38:08.691Z,30.20
2017-08-20T12:40:37.642Z,28.30
2017-08-20T12:43:06.596Z,26.90
2017-08-20T12:45:35.543Z,26.70
2017-08-20T12:48:04.519Z,27.30
2017-08-20T12:50:33.468Z,25.80
2017-08-20T12:53:02.423Z,25.80
2017-08-20T12:55:31.375Z,25.60
2017-08-20T12:58:00.324Z,25.10
2017-08-20T13:00:29.288Z,26.50
2017-08-20T13:02:58.226Z,28.10
2017-08-20T13:05:27.175Z,28.00
2017-08-20T13:07:56.132Z,26.90
2017-08-20T13:10:25.083Z,27.80
2017-08-20T13:12:54.047Z,28.40
2017-08-20T13:15:23.008Z,31.10
2017-08-20T13:17:51.967Z,30.50
2017-08-20T13:20:20.933Z,32.50
2017-08-20T13:22:49.883Z,31.90
2017-08-20T13:25:18.846Z,30.00
2017-08-20T13:27:47.799Z,30.50
2017-08-20T13:30:16.746Z,30.20
2017-08-20T13:32:45.701Z,30.80
2017-08-20T13:35:14.651Z,31.40
2017-08-20T13:37:43.616Z,32.10
2017-08-20T13:40:12.572Z,29.10
2017-08-20T13:42:41.511Z,26.40
2017-08-20T13:45:10.466Z,25.80
2017-08-20T13:47:39.419Z,24.90
2017-08-20T13:50:08.404Z,22.90
2017-08-20T13:52:37.355Z,22.50
2017-08-20T13:55:06.294Z,24.50
2017-08-20T13:57:35.257Z,22.80
2017-08-20T14:00:04.203Z,23.40
2017-08-20T14:02:33.159Z,24.00
2017-08-20T14:05:02.107Z,22.80
2017-08-20T14:07:31.054Z,23.20
2017-08-20T14:10:00.013Z,22.00
2017-08-20T14:12:28.954Z,22.60
2017-08-20T14:14:57.919Z,24.30
2017-08-20T14:17:26.863Z,24.70
2017-08-20T14:19:55.812Z,25.00
2017-08-20T14:22:24.773Z,25.50
2017-08-20T14:24:53.715Z,24.80
2017-08-20T14:27:22.671Z,25.60
2017-08-20T14:29:51.628Z,26.10
2017-08-20T14:32:20.775Z,25.20
2017-08-20T14:34:50.568Z,25.80
2017-08-20T14:37:19.563Z,27.60
2017-08-20T14:39:48.538Z,27.80
2017-08-20T14:42:18.246Z,26.00
2017-08-20T14:44:48.230Z,26.10
2017-08-20T14:47:17.192Z,25.30
2017-08-20T14:49:47.978Z,24.80
2017-08-20T14:52:18.303Z,24.80
2017-08-20T14:54:47.239Z,24.10
2017-08-20T14:57:16.400Z,24.20
2017-08-20T14:59:45.359Z,25.80
2017-08-20T15:02:14.322Z,27.10
2017-08-20T15:04:43.284Z,26.50
2017-08-20T15:07:15.371Z,26.00
2017-08-20T15:09:47.320Z,26.90
2017-08-20T15:12:17.088Z,28.70
2017-08-20T15:14:46.094Z,26.90
2017-08-20T15:17:15.035Z,26.60
2017-08-20T15:19:43.983Z,26.20
2017-08-20T15:22:12.944Z,25.30
2017-08-20T15:24:41.898Z,24.40
2017-08-20T15:27:11.342Z,27.10
2017-08-20T15:29:40.364Z,27.10
2017-08-20T15:32:09.328Z,29.60
2017-08-20T15:34:38.323Z,28.10
2017-08-20T15:37:07.289Z,28.30
2017-08-20T15:39:36.255Z,29.60
2017-08-20T15:42:05.207Z,31.10
2017-08-20T15:44:34.155Z,31.00
2017-08-20T15:47:03.107Z,31.00
2017-08-20T15:49:32.059Z,30.50
2017-08-20T15:52:01.031Z,29.80
2017-08-20T15:54:29.983Z,30.30
2017-08-20T15:56:58.931Z,29.20
2017-08-20T15:59:27.888Z,29.60
2017-08-20T16:01:56.843Z,29.50
2017-08-20T16:04:25.825Z,30.40
2017-08-20T16:06:54.928Z,30.10
2017-08-20T16:09:23.883Z,31.10
2017-08-20T16:11:52.839Z,31.40
2017-08-20T16:14:21.791Z,32.20
2017-08-20T16:16:50.760Z,33.90
2017-08-20T16:19:19.708Z,31.30
2017-08-20T16:21:48.655Z,31.50
2017-08-20T16:24:17.640Z,32.10
2017-08-20T16:26:46.600Z,31.30
2017-08-20T16:29:15.571Z,31.60
2017-08-20T16:31:44.516Z,31.90
2017-08-20T16:34:13.484Z,31.80
2017-08-20T16:36:42.456Z,32.70
2017-08-20T16:39:11.481Z,32.70
2017-08-20T16:41:46.836Z,33.10
2017-08-20T16:44:15.783Z,33.90
2017-08-20T16:46:44.747Z,33.40
2017-08-20T16:49:13.704Z,33.50
2017-08-20T16:51:42.656Z,35.00
2017-08-20T16:54:11.636Z,35.90
2017-08-20T16:56:40.583Z,36.20
2017-08-20T16:59:09.566Z,36.80
2017-08-20T17:01:38.846Z,36.90
2017-08-20T17:04:08.807Z,38.20
2017-08-20T17:06:37.792Z,38.20
2017-08-20T17:09:06.747Z,36.90
2017-08-20T17:11:35.708Z,37.80
2017-08-20T17:14:04.668Z,39.60
2017-08-20T17:16:33.613Z,40.70
2017-08-20T17:19:02.591Z,42.10
2017-08-20T17:21:31.539Z,43.90
2017-08-20T17:24:00.488Z,44.70
2017-08-20T17:26:29.456Z,45.30
2017-08-20T17:28:58.408Z,45.80
2017-08-20T17:31:27.367Z,47.00
2017-08-20T17:33:56.314Z,47.40
2017-08-20T17:36:25.277Z,48.30
2017-08-20T17:38:54.234Z,48.70
2017-08-20T17:41:23.196Z,48.50
2017-08-20T17:43:52.205Z,48.30
2017-08-20T17:46:21.899Z,48.20
2017-08-20T17:48:50.848Z,48.60
2017-08-20T17:51:19.808Z,49.00
2017-08-20T17:53:48.753Z,49.60
2017-08-20T17:56:17.735Z,50.30
2017-08-20T17:58:46.678Z,50.80
2017-08-20T18:01:15.640Z,51.50
2017-08-20T18:03:44.603Z,51.50
2017-08-20T18:06:13.556Z,51.40
2017-08-20T18:08:42.527Z,52.20
2017-08-20T18:11:11.484Z,53.30
2017-08-20T18:13:40.443Z,53.40
2017-08-20T18:16:09.544Z,53.50
2017-08-20T18:18:38.491Z,53.50
2017-08-20T18:21:07.451Z,53.90
2017-08-20T18:23:36.407Z,53.90
2017-08-20T18:26:05.368Z,54.10
2017-08-20T18:28:34.361Z,55.10
2017-08-20T18:31:03.344Z,54.60
2017-08-20T18:33:32.411Z,55.00
2017-08-20T18:36:02.048Z,55.00
2017-08-20T18:38:31.027Z,55.00
2017-08-20T18:41:00.189Z,55.00
2017-08-20T18:43:29.171Z,55.30
2017-08-20T18:45:58.144Z,55.20
2017-08-20T18:48:27.100Z,55.30
2017-08-20T18:50:56.064Z,55.30
2017-08-20T18:53:25.057Z,55.40
2017-08-20T18:55:54.007Z,55.60
2017-08-20T18:58:22.976Z,55.70
2017-08-20T19:00:51.985Z,55.80
2017-08-20T19:03:20.924Z,56.00
2017-08-20T19:05:50.084Z,56.00
2017-08-20T19:08:22.819Z,56.40
2017-08-20T19:10:51.802Z,56.50
2017-08-20T19:13:20.760Z,56.60
2017-08-20T19:15:49.720Z,56.80
2017-08-20T19:18:18.684Z,57.10
2017-08-20T19:20:47.671Z,57.50
2017-08-20T19:23:18.692Z,57.70
2017-08-20T19:25:47.645Z,58.00
2017-08-20T19:28:16.615Z,58.20
2017-08-20T19:30:45.585Z,58.00
2017-08-20T19:33:14.571Z,58.40
2017-08-20T19:35:43.531Z,58.50
2017-08-20T19:38:12.500Z,58.50
2017-08-20T19:40:41.464Z,58.50
2017-08-20T19:43:10.432Z,58.50
2017-08-20T19:45:39.404Z,58.90
2017-08-20T19:48:08.385Z,58.90
2017-08-20T19:50:37.356Z,58.90
2017-08-20T19:53:06.353Z,59.00
2017-08-20T19:55:35.420Z,58.80
2017-08-20T19:58:10.684Z,59.00
2017-08-20T20:00:40.096Z,59.10
2017-08-20T20:03:09.317Z,59.00
2017-08-20T20:05:38.531Z,59.20
2017-08-20T20:08:07.822Z,59.70
2017-08-20T20:10:37.419Z,59.30
2017-08-20T20:13:06.588Z,59.50
2017-08-20T20:15:41.659Z,59.50
2017-08-20T20:18:12.775Z,59.50
2017-08-20T20:20:50.268Z,59.40
2017-08-20T20:23:22.692Z,59.40
2017-08-20T20:25:53.572Z,59.40
2017-08-20T20:28:40.290Z,59.60
2017-08-20T20:31:09.260Z,59.50
2017-08-20T20:33:44.551Z,59.70
2017-08-20T20:36:13.797Z,59.80
2017-08-20T20:38:43.172Z,60.10
2017-08-20T20:41:12.465Z,60.40
2017-08-20T20:43:41.496Z,60.40
2017-08-20T20:46:11.965Z,60.20
2017-08-20T20:48:41.472Z,60.30
2017-08-20T20:51:30.011Z,60.40
2017-08-20T20:53:59.123Z,60.60
2017-08-20T20:56:28.085Z,60.60
2017-08-20T20:58:57.123Z,60.80
2017-08-20T21:01:26.216Z,61.00
2017-08-20T21:03:55.189Z,60.90
2017-08-20T21:06:26.355Z,60.80
2017-08-20T21:09:01.206Z,60.50
2017-08-20T21:11:30.187Z,61.40
2017-08-20T21:13:59.149Z,60.80
2017-08-20T21:16:28.103Z,60.80
2017-08-20T21:18:57.067Z,61.60
2017-08-20T21:21:26.032Z,60.70
2017-08-20T21:23:55.000Z,60.70
2017-08-20T21:26:23.963Z,60.80
2017-08-20T21:28:52.938Z,60.80
2017-08-20T21:31:21.910Z,60.70
2017-08-20T21:33:50.851Z,60.70
2017-08-20T21:36:19.812Z,61.00
2017-08-20T21:38:48.787Z,61.10
2017-08-20T21:41:17.743Z,61.10
2017-08-20T21:43:46.709Z,61.50
2017-08-20T21:46:16.141Z,61.70
2017-08-20T21:48:45.097Z,62.00
2017-08-20T21:51:14.055Z,62.20
2017-08-20T21:53:43.051Z,62.20
2017-08-20T21:56:12.021Z,62.50
2017-08-20T21:58:41.019Z,62.60
2017-08-20T22:01:37.751Z,62.50
2017-08-20T22:04:06.734Z,62.40
2017-08-20T22:06:35.692Z,62.40
2017-08-20T22:09:04.652Z,62.20
2017-08-20T22:11:33.634Z,62.10
2017-08-20T22:14:02.747Z,62.30
2017-08-20T22:16:32.427Z,62.30
2017-08-20T22:19:01.398Z,62.40
2017-08-20T22:21:30.367Z,62.90
2017-08-20T22:23:59.321Z,62.50
2017-08-20T22:26:28.281Z,62.60
2017-08-20T22:28:57.252Z,62.60
2017-08-20T22:31:26.195Z,62.80
2017-08-20T22:33:55.178Z,62.90
2017-08-20T22:36:24.120Z,63.10
2017-08-20T22:38:53.104Z,63.20
2017-08-20T22:41:22.056Z,63.30
2017-08-20T22:43:51.015Z,63.30
2017-08-20T22:46:20.927Z,63.30
2017-08-20T22:48:49.892Z,63.20
2017-08-20T22:51:18.874Z,63.10
2017-08-20T22:53:47.845Z,63.00
2017-08-20T22:56:16.824Z,63.20
2017-08-20T22:58:45.790Z,63.00
2017-08-20T23:01:14.747Z,63.00
2017-08-20T23:03:43.813Z,63.10
2017-08-20T23:06:12.759Z,62.80
2017-08-20T23:08:41.811Z,62.80
2017-08-20T23:11:10.763Z,62.90
2017-08-20T23:13:39.759Z,63.00
2017-08-20T23:16:08.746Z,63.30
2017-08-20T23:18:41.282Z,63.20
2017-08-20T23:21:10.247Z,63.10
2017-08-20T23:23:39.211Z,62.90
2017-08-20T23:26:08.424Z,62.90
2017-08-20T23:28:45.683Z,62.70
2017-08-20T23:31:14.664Z,62.70
2017-08-20T23:33:43.995Z,62.70
2017-08-20T23:36:13.174Z,62.90
2017-08-20T23:38:42.178Z,63.00
2017-08-20T23:41:11.204Z,62.90
2017-08-20T23:43:40.267Z,63.00
2017-08-20T23:46:09.421Z,63.20
2017-08-20T23:48:38.404Z,62.90
2017-08-20T23:51:07.367Z,63.40
2017-08-20T23:53:36.324Z,62.70
2017-08-20T23:56:09.393Z,63.10
2017-08-20T23:58:38.366Z,62.90
